sensor_id;sensor_type;location;lat;lon;timestamp;P1;durP1;ratioP1;P2;durP2;ratioP2
11211;SDS011;5663;50.864;12.096;2024-02-26T00:01:06;13.20;;;7.90;;
11211;SDS011;5663;50.864;12.096;2024-02-26T00:03:33;9.23;;;6.07;;
11211;SDS011;5663;50.864;12.096;2024-02-26T00:06:01;10.10;;;7.43;;
11211;SDS011;5663;50.864;12.096;2024-02-26T00:08:29;11.47;;;7.33;;
11211;SDS011;5663;50.864;12.096;2024-02-26T00:10:56;10.83;;;7.83;;
11211;SDS011;5663;50.864;12.096;2024-02-26T00:13:25;10.30;;;7.10;;
11211;SDS011;5663;50.864;12.096;2024-02-26T00:15:52;12.40;;;7.27;;
11211;SDS011;5663;50.864;12.096;2024-02-26T00:18:20;9.23;;;6.53;;
11211;SDS011;5663;50.864;12.096;2024-02-26T00:20:47;11.17;;;7.40;;
11211;SDS011;5663;50.864;12.096;2024-02-26T00:23:16;10.50;;;7.47;;
11211;SDS011;5663;50.864;12.096;2024-02-26T00:25:43;12.23;;;7.97;;
11211;SDS011;5663;50.864;12.096;2024-02-26T00:28:10;11.43;;;7.97;;
11211;SDS011;5663;50.864;12.096;2024-02-26T00:30:40;11.50;;;8.07;;
11211;SDS011;5663;50.864;12.096;2024-02-26T00:33:09;10.97;;;7.63;;
11211;SDS011;5663;50.864;12.096;2024-02-26T00:35:36;10.87;;;7.77;;
11211;SDS011;5663;50.864;12.096;2024-02-26T00:38:04;10.77;;;8.10;;
11211;SDS011;5663;50.864;12.096;2024-02-26T00:40:32;11.27;;;7.47;;
11211;SDS011;5663;50.864;12.096;2024-02-26T00:43:00;13.23;;;8.30;;
11211;SDS011;5663;50.864;12.096;2024-02-26T00:45:28;13.23;;;8.63;;
11211;SDS011;5663;50.864;12.096;2024-02-26T00:47:58;11.97;;;7.90;;
11211;SDS011;5663;50.864;12.096;2024-02-26T00:50:27;13.67;;;9.40;;
11211;SDS011;5663;50.864;12.096;2024-02-26T00:52:57;12.63;;;8.40;;
11211;SDS011;5663;50.864;12.096;2024-02-26T00:55:25;12.07;;;7.90;;
11211;SDS011;5663;50.864;12.096;2024-02-26T00:57:53;11.20;;;8.20;;
11211;SDS011;5663;50.864;12.096;2024-02-26T01:00:20;11.97;;;8.23;;
11211;SDS011;5663;50.864;12.096;2024-02-26T01:02:48;13.03;;;7.90;;
11211;SDS011;5663;50.864;12.096;2024-02-26T01:05:17;14.70;;;8.10;;
11211;SDS011;5663;50.864;12.096;2024-02-26T01:07:44;11.30;;;7.30;;
11211;SDS011;5663;50.864;12.096;2024-02-26T01:10:12;13.97;;;8.87;;
11211;SDS011;5663;50.864;12.096;2024-02-26T01:12:39;11.53;;;7.67;;
11211;SDS011;5663;50.864;12.096;2024-02-26T01:15:07;12.17;;;8.23;;
11211;SDS011;5663;50.864;12.096;2024-02-26T01:17:35;10.40;;;7.27;;
11211;SDS011;5663;50.864;12.096;2024-02-26T01:20:02;12.60;;;7.90;;
11211;SDS011;5663;50.864;12.096;2024-02-26T01:22:31;12.43;;;7.97;;
11211;SDS011;5663;50.864;12.096;2024-02-26T01:24:59;12.40;;;8.83;;
11211;SDS011;5663;50.864;12.096;2024-02-26T01:27:26;15.33;;;9.00;;
11211;SDS011;5663;50.864;12.096;2024-02-26T01:29:54;13.37;;;8.97;;
11211;SDS011;5663;50.864;12.096;2024-02-26T01:32:21;12.73;;;8.50;;
11211;SDS011;5663;50.864;12.096;2024-02-26T01:34:49;12.73;;;7.67;;
11211;SDS011;5663;50.864;12.096;2024-02-26T01:37:17;13.33;;;8.30;;
11211;SDS011;5663;50.864;12.096;2024-02-26T01:39:47;14.37;;;9.00;;
11211;SDS011;5663;50.864;12.096;2024-02-26T01:42:14;12.40;;;8.27;;
11211;SDS011;5663;50.864;12.096;2024-02-26T01:45:02;12.40;;;7.80;;
11211;SDS011;5663;50.864;12.096;2024-02-26T01:47:29;13.30;;;8.20;;
11211;SDS011;5663;50.864;12.096;2024-02-26T01:49:58;16.33;;;8.57;;
11211;SDS011;5663;50.864;12.096;2024-02-26T01:52:26;11.50;;;8.20;;
11211;SDS011;5663;50.864;12.096;2024-02-26T01:54:55;11.27;;;8.07;;
11211;SDS011;5663;50.864;12.096;2024-02-26T01:57:22;11.20;;;7.57;;
11211;SDS011;5663;50.864;12.096;2024-02-26T01:59:50;11.20;;;8.60;;
11211;SDS011;5663;50.864;12.096;2024-02-26T02:02:18;12.37;;;9.00;;
11211;SDS011;5663;50.864;12.096;2024-02-26T02:04:47;12.70;;;8.57;;
11211;SDS011;5663;50.864;12.096;2024-02-26T02:07:14;13.67;;;9.07;;
11211;SDS011;5663;50.864;12.096;2024-02-26T02:09:42;13.83;;;9.33;;
11211;SDS011;5663;50.864;12.096;2024-02-26T02:12:11;11.63;;;8.43;;
11211;SDS011;5663;50.864;12.096;2024-02-26T02:14:39;13.53;;;9.43;;
11211;SDS011;5663;50.864;12.096;2024-02-26T02:17:07;13.10;;;8.20;;
11211;SDS011;5663;50.864;12.096;2024-02-26T02:19:34;15.23;;;9.27;;
11211;SDS011;5663;50.864;12.096;2024-02-26T02:22:04;13.37;;;9.30;;
11211;SDS011;5663;50.864;12.096;2024-02-26T02:24:31;11.33;;;7.93;;
11211;SDS011;5663;50.864;12.096;2024-02-26T02:26:59;12.53;;;8.43;;
11211;SDS011;5663;50.864;12.096;2024-02-26T02:29:26;14.50;;;9.97;;
11211;SDS011;5663;50.864;12.096;2024-02-26T02:31:55;14.53;;;9.80;;
11211;SDS011;5663;50.864;12.096;2024-02-26T02:34:22;15.33;;;9.90;;
11211;SDS011;5663;50.864;12.096;2024-02-26T02:36:51;17.47;;;10.17;;
11211;SDS011;5663;50.864;12.096;2024-02-26T02:39:21;14.07;;;9.60;;
11211;SDS011;5663;50.864;12.096;2024-02-26T02:41:48;14.60;;;10.27;;
11211;SDS011;5663;50.864;12.096;2024-02-26T02:44:16;15.00;;;9.80;;
11211;SDS011;5663;50.864;12.096;2024-02-26T02:46:43;17.33;;;10.63;;
11211;SDS011;5663;50.864;12.096;2024-02-26T02:49:11;17.80;;;10.60;;
11211;SDS011;5663;50.864;12.096;2024-02-26T02:51:38;15.67;;;9.83;;
11211;SDS011;5663;50.864;12.096;2024-02-26T02:54:08;15.90;;;9.53;;
11211;SDS011;5663;50.864;12.096;2024-02-26T02:56:37;16.47;;;10.23;;
11211;SDS011;5663;50.864;12.096;2024-02-26T02:59:04;16.40;;;9.80;;
11211;SDS011;5663;50.864;12.096;2024-02-26T03:01:32;13.23;;;9.13;;
11211;SDS011;5663;50.864;12.096;2024-02-26T03:03:59;15.57;;;9.77;;
11211;SDS011;5663;50.864;12.096;2024-02-26T03:06:27;15.43;;;10.73;;
11211;SDS011;5663;50.864;12.096;2024-02-26T03:08:56;16.67;;;9.93;;
11211;SDS011;5663;50.864;12.096;2024-02-26T03:11:24;15.87;;;10.27;;
11211;SDS011;5663;50.864;12.096;2024-02-26T03:13:54;16.43;;;10.70;;
11211;SDS011;5663;50.864;12.096;2024-02-26T03:16:21;14.30;;;9.33;;
11211;SDS011;5663;50.864;12.096;2024-02-26T03:18:49;17.33;;;10.73;;
11211;SDS011;5663;50.864;12.096;2024-02-26T03:21:16;14.90;;;9.30;;
11211;SDS011;5663;50.864;12.096;2024-02-26T03:23:43;13.73;;;9.03;;
11211;SDS011;5663;50.864;12.096;2024-02-26T03:26:11;14.73;;;10.00;;
11211;SDS011;5663;50.864;12.096;2024-02-26T03:28:40;16.17;;;10.07;;
11211;SDS011;5663;50.864;12.096;2024-02-26T03:31:09;15.33;;;9.23;;
11211;SDS011;5663;50.864;12.096;2024-02-26T03:33:38;16.53;;;9.00;;
11211;SDS011;5663;50.864;12.096;2024-02-26T03:36:06;17.30;;;8.57;;
11211;SDS011;5663;50.864;12.096;2024-02-26T03:38:33;15.50;;;8.77;;
11211;SDS011;5663;50.864;12.096;2024-02-26T03:41:00;13.07;;;8.50;;
11211;SDS011;5663;50.864;12.096;2024-02-26T03:43:27;11.73;;;7.57;;
11211;SDS011;5663;50.864;12.096;2024-02-26T03:45:55;14.07;;;8.60;;
11211;SDS011;5663;50.864;12.096;2024-02-26T03:48:24;14.57;;;8.57;;
11211;SDS011;5663;50.864;12.096;2024-02-26T03:50:51;15.53;;;9.20;;
11211;SDS011;5663;50.864;12.096;2024-02-26T03:53:22;14.07;;;8.60;;
11211;SDS011;5663;50.864;12.096;2024-02-26T03:55:49;16.13;;;9.43;;
11211;SDS011;5663;50.864;12.096;2024-02-26T03:58:17;15.07;;;8.97;;
11211;SDS011;5663;50.864;12.096;2024-02-26T04:00:45;15.30;;;9.27;;
11211;SDS011;5663;50.864;12.096;2024-02-26T04:03:13;17.03;;;8.90;;
11211;SDS011;5663;50.864;12.096;2024-02-26T04:05:42;12.00;;;7.47;;
11211;SDS011;5663;50.864;12.096;2024-02-26T04:08:10;15.57;;;9.10;;
11211;SDS011;5663;50.864;12.096;2024-02-26T04:10:38;14.40;;;9.27;;
11211;SDS011;5663;50.864;12.096;2024-02-26T04:13:07;14.87;;;9.00;;
11211;SDS011;5663;50.864;12.096;2024-02-26T04:15:34;14.60;;;9.53;;
11211;SDS011;5663;50.864;12.096;2024-02-26T04:18:02;16.07;;;9.63;;
11211;SDS011;5663;50.864;12.096;2024-02-26T04:20:30;14.93;;;8.90;;
11211;SDS011;5663;50.864;12.096;2024-02-26T04:22:59;11.47;;;8.03;;
11211;SDS011;5663;50.864;12.096;2024-02-26T04:25:27;13.60;;;9.13;;
11211;SDS011;5663;50.864;12.096;2024-02-26T04:27:55;15.07;;;8.53;;
11211;SDS011;5663;50.864;12.096;2024-02-26T04:30:23;15.30;;;9.50;;
11211;SDS011;5663;50.864;12.096;2024-02-26T04:32:50;12.67;;;9.00;;
11211;SDS011;5663;50.864;12.096;2024-02-26T04:35:17;18.20;;;9.40;;
11211;SDS011;5663;50.864;12.096;2024-02-26T04:37:46;17.00;;;9.70;;
11211;SDS011;5663;50.864;12.096;2024-02-26T04:40:15;15.40;;;9.23;;
11211;SDS011;5663;50.864;12.096;2024-02-26T04:42:42;13.73;;;9.37;;
11211;SDS011;5663;50.864;12.096;2024-02-26T04:45:09;14.70;;;9.67;;
11211;SDS011;5663;50.864;12.096;2024-02-26T04:47:37;16.50;;;9.70;;
11211;SDS011;5663;50.864;12.096;2024-02-26T04:50:04;13.27;;;9.13;;
11211;SDS011;5663;50.864;12.096;2024-02-26T04:52:32;13.93;;;8.60;;
11211;SDS011;5663;50.864;12.096;2024-02-26T04:54:59;18.83;;;11.80;;
11211;SDS011;5663;50.864;12.096;2024-02-26T04:57:28;20.53;;;11.43;;
11211;SDS011;5663;50.864;12.096;2024-02-26T04:59:56;19.83;;;12.10;;
11211;SDS011;5663;50.864;12.096;2024-02-26T05:02:23;30.50;;;17.30;;
11211;SDS011;5663;50.864;12.096;2024-02-26T05:04:51;21.23;;;12.10;;
11211;SDS011;5663;50.864;12.096;2024-02-26T05:07:18;16.13;;;10.77;;
11211;SDS011;5663;50.864;12.096;2024-02-26T05:09:46;25.10;;;14.07;;
11211;SDS011;5663;50.864;12.096;2024-02-26T05:12:15;19.83;;;12.17;;
11211;SDS011;5663;50.864;12.096;2024-02-26T05:14:44;27.97;;;15.10;;
11211;SDS011;5663;50.864;12.096;2024-02-26T05:17:11;18.93;;;10.90;;
11211;SDS011;5663;50.864;12.096;2024-02-26T05:19:38;16.20;;;9.27;;
11211;SDS011;5663;50.864;12.096;2024-02-26T05:22:06;16.83;;;9.43;;
11211;SDS011;5663;50.864;12.096;2024-02-26T05:24:33;22.97;;;12.70;;
11211;SDS011;5663;50.864;12.096;2024-02-26T05:27:01;15.67;;;10.27;;
11211;SDS011;5663;50.864;12.096;2024-02-26T05:29:28;22.53;;;11.53;;
11211;SDS011;5663;50.864;12.096;2024-02-26T05:31:58;18.80;;;10.97;;
11211;SDS011;5663;50.864;12.096;2024-02-26T05:34:25;13.37;;;8.83;;
11211;SDS011;5663;50.864;12.096;2024-02-26T05:36:52;16.30;;;10.57;;
11211;SDS011;5663;50.864;12.096;2024-02-26T05:39:20;13.97;;;9.23;;
11211;SDS011;5663;50.864;12.096;2024-02-26T05:41:49;19.30;;;9.20;;
11211;SDS011;5663;50.864;12.096;2024-02-26T05:44:17;16.63;;;9.73;;
11211;SDS011;5663;50.864;12.096;2024-02-26T05:46:44;14.47;;;9.43;;
11211;SDS011;5663;50.864;12.096;2024-02-26T05:49:13;16.63;;;9.50;;
11211;SDS011;5663;50.864;12.096;2024-02-26T05:51:40;11.67;;;7.40;;
11211;SDS011;5663;50.864;12.096;2024-02-26T05:54:08;17.00;;;8.17;;
11211;SDS011;5663;50.864;12.096;2024-02-26T05:56:35;16.20;;;9.90;;
11211;SDS011;5663;50.864;12.096;2024-02-26T05:59:03;14.77;;;8.73;;
11211;SDS011;5663;50.864;12.096;2024-02-26T06:01:31;17.13;;;9.20;;
11211;SDS011;5663;50.864;12.096;2024-02-26T06:03:59;18.57;;;9.63;;
11211;SDS011;5663;50.864;12.096;2024-02-26T06:06:28;15.23;;;9.13;;
11211;SDS011;5663;50.864;12.096;2024-02-26T06:08:55;13.50;;;8.50;;
11211;SDS011;5663;50.864;12.096;2024-02-26T06:11:23;14.83;;;9.40;;
11211;SDS011;5663;50.864;12.096;2024-02-26T06:13:50;18.30;;;10.40;;
11211;SDS011;5663;50.864;12.096;2024-02-26T06:16:18;15.63;;;9.87;;
11211;SDS011;5663;50.864;12.096;2024-02-26T06:18:45;21.43;;;9.43;;
11211;SDS011;5663;50.864;12.096;2024-02-26T06:21:12;16.60;;;9.40;;
11211;SDS011;5663;50.864;12.096;2024-02-26T06:23:42;14.27;;;8.80;;
11211;SDS011;5663;50.864;12.096;2024-02-26T06:26:09;15.00;;;9.23;;
11211;SDS011;5663;50.864;12.096;2024-02-26T06:28:38;19.37;;;9.90;;
11211;SDS011;5663;50.864;12.096;2024-02-26T06:31:06;18.10;;;9.73;;
11211;SDS011;5663;50.864;12.096;2024-02-26T06:33:33;15.83;;;9.43;;
11211;SDS011;5663;50.864;12.096;2024-02-26T06:36:01;17.47;;;10.30;;
11211;SDS011;5663;50.864;12.096;2024-02-26T06:38:30;17.07;;;9.93;;
11211;SDS011;5663;50.864;12.096;2024-02-26T06:40:59;17.03;;;10.37;;
11211;SDS011;5663;50.864;12.096;2024-02-26T06:43:27;19.33;;;10.50;;
11211;SDS011;5663;50.864;12.096;2024-02-26T06:45:54;20.30;;;11.33;;
11211;SDS011;5663;50.864;12.096;2024-02-26T06:48:22;18.13;;;10.97;;
11211;SDS011;5663;50.864;12.096;2024-02-26T06:50:49;18.70;;;11.40;;
11211;SDS011;5663;50.864;12.096;2024-02-26T06:53:17;20.27;;;10.67;;
11211;SDS011;5663;50.864;12.096;2024-02-26T06:55:44;18.93;;;10.73;;
11211;SDS011;5663;50.864;12.096;2024-02-26T06:58:13;15.60;;;10.20;;
11211;SDS011;5663;50.864;12.096;2024-02-26T07:00:40;19.50;;;11.53;;
11211;SDS011;5663;50.864;12.096;2024-02-26T07:03:09;20.47;;;11.33;;
11211;SDS011;5663;50.864;12.096;2024-02-26T07:05:52;16.17;;;10.33;;
11211;SDS011;5663;50.864;12.096;2024-02-26T07:08:19;18.73;;;11.00;;
11211;SDS011;5663;50.864;12.096;2024-02-26T07:10:47;17.67;;;11.37;;
11211;SDS011;5663;50.864;12.096;2024-02-26T07:13:15;16.67;;;10.47;;
11211;SDS011;5663;50.864;12.096;2024-02-26T07:15:43;15.90;;;10.00;;
11211;SDS011;5663;50.864;12.096;2024-02-26T07:18:11;19.70;;;10.80;;
11211;SDS011;5663;50.864;12.096;2024-02-26T07:20:38;18.53;;;11.40;;
11211;SDS011;5663;50.864;12.096;2024-02-26T07:23:06;19.40;;;12.30;;
11211;SDS011;5663;50.864;12.096;2024-02-26T07:25:34;18.50;;;10.57;;
11211;SDS011;5663;50.864;12.096;2024-02-26T07:28:01;20.17;;;12.30;;
11211;SDS011;5663;50.864;12.096;2024-02-26T07:30:30;16.83;;;10.53;;
11211;SDS011;5663;50.864;12.096;2024-02-26T07:32:58;19.43;;;11.33;;
11211;SDS011;5663;50.864;12.096;2024-02-26T07:35:26;22.67;;;10.77;;
11211;SDS011;5663;50.864;12.096;2024-02-26T07:37:54;16.50;;;10.50;;
11211;SDS011;5663;50.864;12.096;2024-02-26T07:40:21;16.73;;;10.77;;
11211;SDS011;5663;50.864;12.096;2024-02-26T07:42:48;18.77;;;10.80;;
11211;SDS011;5663;50.864;12.096;2024-02-26T07:45:16;15.93;;;9.80;;
11211;SDS011;5663;50.864;12.096;2024-02-26T07:47:47;14.63;;;9.53;;
11211;SDS011;5663;50.864;12.096;2024-02-26T07:50:14;18.47;;;10.00;;
11211;SDS011;5663;50.864;12.096;2024-02-26T07:52:41;17.20;;;10.40;;
11211;SDS011;5663;50.864;12.096;2024-02-26T07:55:09;14.10;;;9.80;;
11211;SDS011;5663;50.864;12.096;2024-02-26T07:57:37;14.47;;;10.23;;
11211;SDS011;5663;50.864;12.096;2024-02-26T08:00:04;14.57;;;10.73;;
11211;SDS011;5663;50.864;12.096;2024-02-26T08:02:33;17.70;;;11.27;;
11211;SDS011;5663;50.864;12.096;2024-02-26T08:05:03;16.03;;;10.47;;
11211;SDS011;5663;50.864;12.096;2024-02-26T08:07:30;18.57;;;11.33;;
11211;SDS011;5663;50.864;12.096;2024-02-26T08:09:58;18.53;;;12.53;;
11211;SDS011;5663;50.864;12.096;2024-02-26T08:12:25;18.00;;;11.97;;
11211;SDS011;5663;50.864;12.096;2024-02-26T08:14:53;19.17;;;11.23;;
11211;SDS011;5663;50.864;12.096;2024-02-26T08:17:20;18.87;;;12.43;;
11211;SDS011;5663;50.864;12.096;2024-02-26T08:19:48;19.20;;;11.23;;
11211;SDS011;5663;50.864;12.096;2024-02-26T08:22:17;17.00;;;10.50;;
11211;SDS011;5663;50.864;12.096;2024-02-26T08:24:47;16.00;;;10.60;;
11211;SDS011;5663;50.864;12.096;2024-02-26T08:27:16;18.70;;;10.20;;
11211;SDS011;5663;50.864;12.096;2024-02-26T08:29:48;18.27;;;12.27;;
11211;SDS011;5663;50.864;12.096;2024-02-26T08:32:15;17.30;;;10.73;;
11211;SDS011;5663;50.864;12.096;2024-02-26T08:34:42;21.53;;;11.73;;
11211;SDS011;5663;50.864;12.096;2024-02-26T08:37:11;17.77;;;11.73;;
11211;SDS011;5663;50.864;12.096;2024-02-26T08:39:39;20.00;;;11.90;;
11211;SDS011;5663;50.864;12.096;2024-02-26T08:42:07;21.57;;;12.00;;
11211;SDS011;5663;50.864;12.096;2024-02-26T08:44:34;19.37;;;12.57;;
11211;SDS011;5663;50.864;12.096;2024-02-26T08:47:02;18.30;;;11.93;;
11211;SDS011;5663;50.864;12.096;2024-02-26T08:49:29;16.53;;;12.17;;
11211;SDS011;5663;50.864;12.096;2024-02-26T08:51:57;14.57;;;11.00;;
11211;SDS011;5663;50.864;12.096;2024-02-26T08:54:24;18.30;;;12.53;;
11211;SDS011;5663;50.864;12.096;2024-02-26T08:56:53;17.90;;;12.53;;
11211;SDS011;5663;50.864;12.096;2024-02-26T08:59:21;17.03;;;12.10;;
11211;SDS011;5663;50.864;12.096;2024-02-26T09:01:49;20.40;;;13.70;;
11211;SDS011;5663;50.864;12.096;2024-02-26T09:04:16;19.50;;;13.53;;
11211;SDS011;5663;50.864;12.096;2024-02-26T09:06:44;19.73;;;12.83;;
11211;SDS011;5663;50.864;12.096;2024-02-26T09:09:11;16.40;;;11.97;;
11211;SDS011;5663;50.864;12.096;2024-02-26T09:11:39;21.17;;;13.63;;
11211;SDS011;5663;50.864;12.096;2024-02-26T09:14:12;20.87;;;13.07;;
11211;SDS011;5663;50.864;12.096;2024-02-26T09:16:39;22.30;;;15.37;;
11211;SDS011;5663;50.864;12.096;2024-02-26T09:19:07;23.70;;;14.30;;
11211;SDS011;5663;50.864;12.096;2024-02-26T09:21:34;20.63;;;14.47;;
11211;SDS011;5663;50.864;12.096;2024-02-26T09:24:02;22.70;;;14.13;;
11211;SDS011;5663;50.864;12.096;2024-02-26T09:26:31;22.37;;;14.40;;
11211;SDS011;5663;50.864;12.096;2024-02-26T09:28:59;24.33;;;15.67;;
11211;SDS011;5663;50.864;12.096;2024-02-26T09:31:28;21.00;;;14.50;;
11211;SDS011;5663;50.864;12.096;2024-02-26T09:33:56;20.07;;;13.53;;
11211;SDS011;5663;50.864;12.096;2024-02-26T09:36:24;20.43;;;14.60;;
11211;SDS011;5663;50.864;12.096;2024-02-26T09:38:51;19.87;;;13.43;;
11211;SDS011;5663;50.864;12.096;2024-02-26T09:41:22;22.13;;;14.87;;
11211;SDS011;5663;50.864;12.096;2024-02-26T09:43:56;23.93;;;15.13;;
11211;SDS011;5663;50.864;12.096;2024-02-26T09:46:25;23.63;;;15.73;;
11211;SDS011;5663;50.864;12.096;2024-02-26T09:48:54;23.23;;;14.97;;
11211;SDS011;5663;50.864;12.096;2024-02-26T09:51:22;26.10;;;16.47;;
11211;SDS011;5663;50.864;12.096;2024-02-26T09:53:52;22.40;;;14.43;;
11211;SDS011;5663;50.864;12.096;2024-02-26T09:56:20;21.93;;;15.07;;
11211;SDS011;5663;50.864;12.096;2024-02-26T09:58:48;25.40;;;16.90;;
11211;SDS011;5663;50.864;12.096;2024-02-26T10:01:20;21.73;;;14.37;;
11211;SDS011;5663;50.864;12.096;2024-02-26T10:03:55;23.07;;;14.53;;
11211;SDS011;5663;50.864;12.096;2024-02-26T10:06:23;23.07;;;15.23;;
11211;SDS011;5663;50.864;12.096;2024-02-26T10:08:51;20.87;;;14.97;;
11211;SDS011;5663;50.864;12.096;2024-02-26T10:11:19;21.73;;;14.40;;
11211;SDS011;5663;50.864;12.096;2024-02-26T10:13:47;24.70;;;16.70;;
11211;SDS011;5663;50.864;12.096;2024-02-26T10:16:14;23.40;;;15.57;;
11211;SDS011;5663;50.864;12.096;2024-02-26T10:18:47;22.20;;;14.87;;
11211;SDS011;5663;50.864;12.096;2024-02-26T10:21:17;25.13;;;16.43;;
11211;SDS011;5663;50.864;12.096;2024-02-26T10:23:44;21.67;;;15.57;;
11211;SDS011;5663;50.864;12.096;2024-02-26T10:26:14;24.53;;;16.67;;
11211;SDS011;5663;50.864;12.096;2024-02-26T10:28:42;21.63;;;16.10;;
11211;SDS011;5663;50.864;12.096;2024-02-26T10:31:10;25.87;;;16.40;;
11211;SDS011;5663;50.864;12.096;2024-02-26T10:37:07;26.87;;;18.87;;
11211;SDS011;5663;50.864;12.096;2024-02-26T10:39:36;24.03;;;17.97;;
11211;SDS011;5663;50.864;12.096;2024-02-26T10:42:04;25.33;;;17.90;;
11211;SDS011;5663;50.864;12.096;2024-02-26T10:44:35;25.47;;;17.33;;
11211;SDS011;5663;50.864;12.096;2024-02-26T10:47:03;22.90;;;16.83;;
11211;SDS011;5663;50.864;12.096;2024-02-26T10:49:30;25.07;;;16.70;;
11211;SDS011;5663;50.864;12.096;2024-02-26T10:51:59;22.67;;;14.97;;
11211;SDS011;5663;50.864;12.096;2024-02-26T10:54:28;20.27;;;14.70;;
11211;SDS011;5663;50.864;12.096;2024-02-26T10:56:56;36.20;;;15.30;;
11211;SDS011;5663;50.864;12.096;2024-02-26T10:59:24;23.23;;;15.47;;
11211;SDS011;5663;50.864;12.096;2024-02-26T11:01:52;19.70;;;14.93;;
11211;SDS011;5663;50.864;12.096;2024-02-26T11:04:21;22.07;;;14.57;;
11211;SDS011;5663;50.864;12.096;2024-02-26T11:06:51;25.10;;;14.77;;
11211;SDS011;5663;50.864;12.096;2024-02-26T11:09:18;21.70;;;15.73;;
11211;SDS011;5663;50.864;12.096;2024-02-26T11:11:48;21.00;;;15.13;;
11211;SDS011;5663;50.864;12.096;2024-02-26T11:14:15;20.73;;;14.87;;
11211;SDS011;5663;50.864;12.096;2024-02-26T11:16:43;18.60;;;13.63;;
11211;SDS011;5663;50.864;12.096;2024-02-26T11:19:10;20.27;;;14.77;;
11211;SDS011;5663;50.864;12.096;2024-02-26T11:21:39;18.07;;;12.80;;
11211;SDS011;5663;50.864;12.096;2024-02-26T11:24:09;29.30;;;15.73;;
11211;SDS011;5663;50.864;12.096;2024-02-26T11:26:39;16.87;;;13.43;;
11211;SDS011;5663;50.864;12.096;2024-02-26T11:29:09;21.67;;;15.10;;
11211;SDS011;5663;50.864;12.096;2024-02-26T11:31:38;23.60;;;15.70;;
11211;SDS011;5663;50.864;12.096;2024-02-26T11:34:06;24.50;;;16.83;;
11211;SDS011;5663;50.864;12.096;2024-02-26T11:36:35;28.03;;;15.73;;
11211;SDS011;5663;50.864;12.096;2024-02-26T11:39:04;22.83;;;16.03;;
11211;SDS011;5663;50.864;12.096;2024-02-26T11:41:31;21.73;;;15.47;;
11211;SDS011;5663;50.864;12.096;2024-02-26T11:44:00;29.63;;;16.17;;
11211;SDS011;5663;50.864;12.096;2024-02-26T11:46:30;23.33;;;15.47;;
11211;SDS011;5663;50.864;12.096;2024-02-26T11:49:00;22.63;;;15.83;;
11211;SDS011;5663;50.864;12.096;2024-02-26T11:51:31;24.80;;;14.77;;
11211;SDS011;5663;50.864;12.096;2024-02-26T11:53:59;19.60;;;14.97;;
11211;SDS011;5663;50.864;12.096;2024-02-26T11:56:26;22.97;;;16.03;;
11211;SDS011;5663;50.864;12.096;2024-02-26T11:58:59;18.97;;;15.00;;
11211;SDS011;5663;50.864;12.096;2024-02-26T12:01:40;21.77;;;16.07;;
11211;SDS011;5663;50.864;12.096;2024-02-26T12:04:11;27.00;;;15.20;;
11211;SDS011;5663;50.864;12.096;2024-02-26T12:06:45;21.30;;;14.20;;
11211;SDS011;5663;50.864;12.096;2024-02-26T12:09:12;21.73;;;15.63;;
11211;SDS011;5663;50.864;12.096;2024-02-26T12:11:40;20.63;;;14.87;;
11211;SDS011;5663;50.864;12.096;2024-02-26T12:14:08;20.93;;;14.67;;
11211;SDS011;5663;50.864;12.096;2024-02-26T12:16:36;24.50;;;15.20;;
11211;SDS011;5663;50.864;12.096;2024-02-26T12:19:06;25.87;;;14.77;;
11211;SDS011;5663;50.864;12.096;2024-02-26T12:21:34;19.87;;;14.73;;
11211;SDS011;5663;50.864;12.096;2024-02-26T12:24:12;20.60;;;14.67;;
11211;SDS011;5663;50.864;12.096;2024-02-26T12:26:39;23.03;;;15.37;;
11211;SDS011;5663;50.864;12.096;2024-02-26T12:29:07;20.63;;;15.47;;
11211;SDS011;5663;50.864;12.096;2024-02-26T12:31:35;17.83;;;13.80;;
11211;SDS011;5663;50.864;12.096;2024-02-26T12:34:06;21.73;;;15.23;;
11211;SDS011;5663;50.864;12.096;2024-02-26T12:36:36;18.20;;;14.30;;
11211;SDS011;5663;50.864;12.096;2024-02-26T12:39:04;22.43;;;13.23;;
11211;SDS011;5663;50.864;12.096;2024-02-26T12:41:33;19.77;;;15.10;;
11211;SDS011;5663;50.864;12.096;2024-02-26T12:44:00;24.67;;;15.10;;
11211;SDS011;5663;50.864;12.096;2024-02-26T12:46:28;19.93;;;14.50;;
11211;SDS011;5663;50.864;12.096;2024-02-26T12:48:57;17.73;;;13.67;;
11211;SDS011;5663;50.864;12.096;2024-02-26T12:51:30;20.43;;;13.80;;
11211;SDS011;5663;50.864;12.096;2024-02-26T12:53:59;17.47;;;14.20;;
11211;SDS011;5663;50.864;12.096;2024-02-26T12:56:26;20.77;;;14.13;;
11211;SDS011;5663;50.864;12.096;2024-02-26T12:58:55;20.63;;;15.03;;
11211;SDS011;5663;50.864;12.096;2024-02-26T13:01:24;19.17;;;14.83;;
11211;SDS011;5663;50.864;12.096;2024-02-26T13:03:52;18.10;;;13.37;;
11211;SDS011;5663;50.864;12.096;2024-02-26T13:06:21;14.73;;;11.47;;
11211;SDS011;5663;50.864;12.096;2024-02-26T13:08:54;15.87;;;11.43;;
11211;SDS011;5663;50.864;12.096;2024-02-26T13:11:24;15.27;;;11.80;;
11211;SDS011;5663;50.864;12.096;2024-02-26T13:13:53;16.37;;;12.10;;
11211;SDS011;5663;50.864;12.096;2024-02-26T13:16:23;16.67;;;13.20;;
11211;SDS011;5663;50.864;12.096;2024-02-26T13:18:51;16.63;;;12.47;;
11211;SDS011;5663;50.864;12.096;2024-02-26T13:21:20;19.63;;;11.77;;
11211;SDS011;5663;50.864;12.096;2024-02-26T13:23:51;16.47;;;12.17;;
11211;SDS011;5663;50.864;12.096;2024-02-26T13:26:21;14.17;;;11.60;;
11211;SDS011;5663;50.864;12.096;2024-02-26T13:28:58;13.57;;;10.70;;
11211;SDS011;5663;50.864;12.096;2024-02-26T13:31:26;26.27;;;16.10;;
11211;SDS011;5663;50.864;12.096;2024-02-26T13:33:53;15.07;;;11.30;;
11211;SDS011;5663;50.864;12.096;2024-02-26T13:36:21;15.00;;;11.03;;
11211;SDS011;5663;50.864;12.096;2024-02-26T13:38:53;14.27;;;10.67;;
11211;SDS011;5663;50.864;12.096;2024-02-26T13:41:24;16.50;;;11.03;;
11211;SDS011;5663;50.864;12.096;2024-02-26T13:43:53;19.40;;;10.67;;
11211;SDS011;5663;50.864;12.096;2024-02-26T13:46:20;16.47;;;11.60;;
11211;SDS011;5663;50.864;12.096;2024-02-26T13:48:47;15.27;;;10.83;;
11211;SDS011;5663;50.864;12.096;2024-02-26T13:51:16;16.37;;;10.57;;
11211;SDS011;5663;50.864;12.096;2024-02-26T13:53:44;16.23;;;11.00;;
11211;SDS011;5663;50.864;12.096;2024-02-26T13:56:13;15.17;;;11.47;;
11211;SDS011;5663;50.864;12.096;2024-02-26T13:58:40;15.80;;;10.80;;
11211;SDS011;5663;50.864;12.096;2024-02-26T14:01:08;22.03;;;12.20;;
11211;SDS011;5663;50.864;12.096;2024-02-26T14:03:35;15.47;;;11.17;;
11211;SDS011;5663;50.864;12.096;2024-02-26T14:06:03;14.37;;;11.47;;
11211;SDS011;5663;50.864;12.096;2024-02-26T14:08:31;14.63;;;11.67;;
11211;SDS011;5663;50.864;12.096;2024-02-26T14:11:01;14.80;;;11.03;;
11211;SDS011;5663;50.864;12.096;2024-02-26T14:13:30;13.20;;;10.57;;
11211;SDS011;5663;50.864;12.096;2024-02-26T14:15:57;14.43;;;11.27;;
11211;SDS011;5663;50.864;12.096;2024-02-26T14:18:25;14.40;;;10.63;;
11211;SDS011;5663;50.864;12.096;2024-02-26T14:20:53;13.97;;;11.07;;
11211;SDS011;5663;50.864;12.096;2024-02-26T14:23:20;18.93;;;10.70;;
11211;SDS011;5663;50.864;12.096;2024-02-26T14:25:48;14.90;;;10.67;;
11211;SDS011;5663;50.864;12.096;2024-02-26T14:28:16;15.60;;;10.37;;
11211;SDS011;5663;50.864;12.096;2024-02-26T14:30:46;11.53;;;9.60;;
11211;SDS011;5663;50.864;12.096;2024-02-26T14:33:14;14.37;;;10.30;;
11211;SDS011;5663;50.864;12.096;2024-02-26T14:35:42;28.83;;;10.60;;